sensor_id;sensor_type;location;lat;lon;timestamp;noise_LAeq;noise_LA_min;noise_LA_max;noise_LA01;noise_LA95
69618;Laerm;57652;51.436;5.980;2022-11-06T00:00:05;35.66;34.23;37.16;;
69618;Laerm;57652;51.436;5.980;2022-11-06T00:00:16;39.22;34.25;52.95;;
69618;Laerm;57652;51.436;5.980;2022-11-06T00:00:27;35.64;34.44;36.83;;
69618;Laerm;57652;51.436;5.980;2022-11-06T00:00:39;35.95;34.44;43.08;;
69618;Laerm;57652;51.436;5.980;2022-11-06T00:00:49;36.15;34.84;37.67;;
69618;Laerm;57652;51.436;5.980;2022-11-06T00:01:03;35.45;34.35;38.07;;
69618;Laerm;57652;51.436;5.980;2022-11-06T00:01:14;34.82;33.65;38.56;;
69618;Laerm;57652;51.436;5.980;2022-11-06T00:01:25;34.93;33.45;36.16;;
69618;Laerm;57652;51.436;5.980;2022-11-06T00:01:36;35.24;33.91;36.60;;
69618;Laerm;57652;51.436;5.980;2022-11-06T00:01:46;36.14;34.30;37.81;;
69618;Laerm;57652;51.436;5.980;2022-11-06T00:01:56;36.34;34.75;37.54;;
69618;Laerm;57652;51.436;5.980;2022-11-06T00:02:06;35.62;34.19;39.26;;
69618;Laerm;57652;51.436;5.980;2022-11-06T00:02:17;35.49;34.00;38.76;;
69618;Laerm;57652;51.436;5.980;2022-11-06T00:02:27;35.32;33.77;36.65;;
69618;Laerm;57652;51.436;5.980;2022-11-06T00:02:38;35.48;34.10;36.92;;
69618;Laerm;57652;51.436;5.980;2022-11-06T00:02:49;36.05;34.75;37.19;;
69618;Laerm;57652;51.436;5.980;2022-11-06T00:02:59;37.65;35.52;40.53;;
69618;Laerm;57652;51.436;5.980;2022-11-06T00:03:10;37.31;34.86;39.45;;
69618;Laerm;57652;51.436;5.980;2022-11-06T00:03:20;37.12;34.71;40.02;;
69618;Laerm;57652;51.436;5.980;2022-11-06T00:03:31;38.07;35.51;42.64;;
69618;Laerm;57652;51.436;5.980;2022-11-06T00:03:41;38.05;35.29;41.83;;
69618;Laerm;57652;51.436;5.980;2022-11-06T00:03:52;41.66;35.16;49.00;;
69618;Laerm;57652;51.436;5.980;2022-11-06T00:04:03;36.39;34.46;40.97;;
69618;Laerm;57652;51.436;5.980;2022-11-06T00:04:13;35.37;33.89;36.76;;
69618;Laerm;57652;51.436;5.980;2022-11-06T00:04:23;35.14;34.00;36.42;;
69618;Laerm;57652;51.436;5.980;2022-11-06T00:04:33;35.48;33.90;36.55;;
69618;Laerm;57652;51.436;5.980;2022-11-06T00:04:44;35.87;34.44;37.30;;
69618;Laerm;57652;51.436;5.980;2022-11-06T00:04:54;36.52;35.18;38.49;;
69618;Laerm;57652;51.436;5.980;2022-11-06T00:05:25;36.60;34.43;40.51;;
69618;Laerm;57652;51.436;5.980;2022-11-06T00:05:53;35.97;33.78;38.89;;
69618;Laerm;57652;51.436;5.980;2022-11-06T00:06:22;35.34;33.85;38.07;;
69618;Laerm;57652;51.436;5.980;2022-11-06T00:06:51;35.92;33.63;40.23;;
69618;Laerm;57652;51.436;5.980;2022-11-06T00:07:02;35.19;33.83;37.73;;
69618;Laerm;57652;51.436;5.980;2022-11-06T00:07:12;36.54;33.85;42.74;;
69618;Laerm;57652;51.436;5.980;2022-11-06T00:07:22;35.05;33.55;37.60;;
69618;Laerm;57652;51.436;5.980;2022-11-06T00:07:32;38.46;34.38;44.20;;
69618;Laerm;57652;51.436;5.980;2022-11-06T00:07:46;35.99;34.23;38.14;;
69618;Laerm;57652;51.436;5.980;2022-11-06T00:07:56;35.17;33.76;36.68;;
69618;Laerm;57652;51.436;5.980;2022-11-06T00:08:07;35.06;33.78;36.19;;
69618;Laerm;57652;51.436;5.980;2022-11-06T00:08:27;35.01;33.56;36.13;;
69618;Laerm;57652;51.436;5.980;2022-11-06T00:08:38;35.98;33.73;38.82;;
69618;Laerm;57652;51.436;5.980;2022-11-06T00:08:50;36.68;34.29;39.16;;
69618;Laerm;57652;51.436;5.980;2022-11-06T00:09:01;35.29;33.72;36.76;;
69618;Laerm;57652;51.436;5.980;2022-11-06T00:09:12;35.39;33.55;39.17;;
69618;Laerm;57652;51.436;5.980;2022-11-06T00:09:23;35.56;33.62;37.16;;
69618;Laerm;57652;51.436;5.980;2022-11-06T00:09:33;34.72;33.67;36.25;;
69618;Laerm;57652;51.436;5.980;2022-11-06T00:09:44;35.29;33.81;36.65;;
69618;Laerm;57652;51.436;5.980;2022-11-06T00:09:54;34.98;33.40;36.48;;
69618;Laerm;57652;51.436;5.980;2022-11-06T00:10:04;35.13;33.80;37.05;;
69618;Laerm;57652;51.436;5.980;2022-11-06T00:10:15;34.72;33.45;35.75;;
69618;Laerm;57652;51.436;5.980;2022-11-06T00:10:25;34.71;33.65;36.39;;
69618;Laerm;57652;51.436;5.980;2022-11-06T00:10:36;34.87;33.83;36.71;;
69618;Laerm;57652;51.436;5.980;2022-11-06T00:10:46;35.09;33.70;36.37;;
69618;Laerm;57652;51.436;5.980;2022-11-06T00:10:56;34.95;33.67;36.53;;
69618;Laerm;57652;51.436;5.980;2022-11-06T00:11:08;34.63;33.28;35.84;;
69618;Laerm;57652;51.436;5.980;2022-11-06T00:11:19;34.88;33.54;36.61;;
69618;Laerm;57652;51.436;5.980;2022-11-06T00:11:29;34.51;33.27;35.68;;
69618;Laerm;57652;51.436;5.980;2022-11-06T00:11:40;34.80;33.35;36.03;;
69618;Laerm;57652;51.436;5.980;2022-11-06T00:11:50;34.66;33.12;35.89;;
69618;Laerm;57652;51.436;5.980;2022-11-06T00:12:02;34.63;33.59;37.27;;
69618;Laerm;57652;51.436;5.980;2022-11-06T00:12:12;34.72;33.31;35.86;;
69618;Laerm;57652;51.436;5.980;2022-11-06T00:12:23;34.92;33.28;36.29;;
69618;Laerm;57652;51.436;5.980;2022-11-06T00:12:33;35.37;33.74;37.26;;
69618;Laerm;57652;51.436;5.980;2022-11-06T00:12:43;34.92;33.72;36.15;;
69618;Laerm;57652;51.436;5.980;2022-11-06T00:12:54;36.23;33.67;39.85;;
69618;Laerm;57652;51.436;5.980;2022-11-06T00:13:04;35.58;33.88;39.42;;
69618;Laerm;57652;51.436;5.980;2022-11-06T00:13:14;34.96;33.23;37.76;;
69618;Laerm;57652;51.436;5.980;2022-11-06T00:13:25;34.87;33.66;36.14;;
69618;Laerm;57652;51.436;5.980;2022-11-06T00:13:35;34.60;33.19;35.84;;
69618;Laerm;57652;51.436;5.980;2022-11-06T00:13:46;35.97;33.35;37.98;;
69618;Laerm;57652;51.436;5.980;2022-11-06T00:13:56;37.08;35.01;39.74;;
69618;Laerm;57652;51.436;5.980;2022-11-06T00:14:07;37.62;36.17;40.90;;
69618;Laerm;57652;51.436;5.980;2022-11-06T00:14:18;39.20;36.03;48.27;;
69618;Laerm;57652;51.436;5.980;2022-11-06T00:14:28;36.56;34.58;39.53;;
69618;Laerm;57652;51.436;5.980;2022-11-06T00:14:38;36.36;34.71;38.03;;
69618;Laerm;57652;51.436;5.980;2022-11-06T00:14:49;36.72;35.00;38.30;;
69618;Laerm;57652;51.436;5.980;2022-11-06T00:14:59;36.44;34.55;38.74;;
69618;Laerm;57652;51.436;5.980;2022-11-06T00:15:09;36.47;34.85;37.75;;
69618;Laerm;57652;51.436;5.980;2022-11-06T00:15:20;36.49;34.99;38.37;;
69618;Laerm;57652;51.436;5.980;2022-11-06T00:15:30;35.51;33.85;37.12;;
69618;Laerm;57652;51.436;5.980;2022-11-06T00:15:40;35.85;33.69;38.20;;
69618;Laerm;57652;51.436;5.980;2022-11-06T00:15:50;35.50;33.83;39.39;;
69618;Laerm;57652;51.436;5.980;2022-11-06T00:16:02;34.65;33.04;35.98;;
69618;Laerm;57652;51.436;5.980;2022-11-06T00:16:12;35.10;33.75;36.55;;
69618;Laerm;57652;51.436;5.980;2022-11-06T00:16:23;34.90;33.65;37.83;;
69618;Laerm;57652;51.436;5.980;2022-11-06T00:16:35;34.89;33.18;37.59;;
69618;Laerm;57652;51.436;5.980;2022-11-06T00:16:46;35.69;34.25;38.64;;
69618;Laerm;57652;51.436;5.980;2022-11-06T00:16:56;35.61;34.25;40.71;;
69618;Laerm;57652;51.436;5.980;2022-11-06T00:17:06;35.99;34.17;41.81;;
69618;Laerm;57652;51.436;5.980;2022-11-06T00:17:16;36.96;33.88;47.56;;
69618;Laerm;57652;51.436;5.980;2022-11-06T00:17:27;37.07;34.03;45.88;;
69618;Laerm;57652;51.436;5.980;2022-11-06T00:17:37;36.25;34.26;43.45;;
69618;Laerm;57652;51.436;5.980;2022-11-06T00:17:48;35.60;34.24;36.72;;
69618;Laerm;57652;51.436;5.980;2022-11-06T00:17:59;36.40;34.56;38.57;;
69618;Laerm;57652;51.436;5.980;2022-11-06T00:18:09;37.43;35.38;39.26;;
69618;Laerm;57652;51.436;5.980;2022-11-06T00:18:20;35.99;34.09;37.90;;
69618;Laerm;57652;51.436;5.980;2022-11-06T00:18:30;35.79;34.67;37.44;;
69618;Laerm;57652;51.436;5.980;2022-11-06T00:18:41;36.46;34.48;38.65;;
69618;Laerm;57652;51.436;5.980;2022-11-06T00:18:51;37.27;34.84;41.41;;
69618;Laerm;57652;51.436;5.980;2022-11-06T00:19:01;36.54;34.10;40.94;;
69618;Laerm;57652;51.436;5.980;2022-11-06T00:19:12;35.18;34.07;36.76;;
69618;Laerm;57652;51.436;5.980;2022-11-06T00:19:23;35.20;33.56;37.29;;
69618;Laerm;57652;51.436;5.980;2022-11-06T00:19:33;35.29;33.78;36.74;;
69618;Laerm;57652;51.436;5.980;2022-11-06T00:19:43;35.24;33.61;36.79;;
69618;Laerm;57652;51.436;5.980;2022-11-06T00:19:53;36.45;34.66;43.63;;
69618;Laerm;57652;51.436;5.980;2022-11-06T00:20:04;37.00;34.87;44.13;;
69618;Laerm;57652;51.436;5.980;2022-11-06T00:20:15;35.89;34.09;37.32;;
69618;Laerm;57652;51.436;5.980;2022-11-06T00:20:25;35.72;34.36;37.29;;
69618;Laerm;57652;51.436;5.980;2022-11-06T00:20:36;37.30;34.82;42.36;;
69618;Laerm;57652;51.436;5.980;2022-11-06T00:20:46;37.93;34.69;45.29;;
69618;Laerm;57652;51.436;5.980;2022-11-06T00:20:56;36.87;34.72;42.41;;
69618;Laerm;57652;51.436;5.980;2022-11-06T00:21:24;37.82;36.19;39.27;;
69618;Laerm;57652;51.436;5.980;2022-11-06T00:21:34;38.80;36.54;51.87;;
69618;Laerm;57652;51.436;5.980;2022-11-06T00:21:45;38.54;36.99;41.49;;
69618;Laerm;57652;51.436;5.980;2022-11-06T00:21:55;36.95;34.96;40.57;;
69618;Laerm;57652;51.436;5.980;2022-11-06T00:22:05;37.66;35.87;39.11;;
69618;Laerm;57652;51.436;5.980;2022-11-06T00:22:15;36.42;34.74;39.89;;
69618;Laerm;57652;51.436;5.980;2022-11-06T00:22:26;35.91;34.30;41.78;;
69618;Laerm;57652;51.436;5.980;2022-11-06T00:22:36;35.40;34.05;40.44;;
69618;Laerm;57652;51.436;5.980;2022-11-06T00:22:46;35.30;33.63;40.52;;
69618;Laerm;57652;51.436;5.980;2022-11-06T00:22:57;34.81;33.48;37.22;;
69618;Laerm;57652;51.436;5.980;2022-11-06T00:23:07;36.26;33.41;43.99;;
69618;Laerm;57652;51.436;5.980;2022-11-06T00:23:17;34.62;33.62;35.79;;
69618;Laerm;57652;51.436;5.980;2022-11-06T00:23:27;35.32;33.90;41.90;;
69618;Laerm;57652;51.436;5.980;2022-11-06T00:23:38;36.01;34.46;38.05;;
69618;Laerm;57652;51.436;5.980;2022-11-06T00:23:48;35.58;34.09;38.20;;
69618;Laerm;57652;51.436;5.980;2022-11-06T00:24:00;36.42;34.38;38.68;;
69618;Laerm;57652;51.436;5.980;2022-11-06T00:24:11;36.31;34.47;38.04;;
69618;Laerm;57652;51.436;5.980;2022-11-06T00:24:22;35.55;33.84;37.80;;
69618;Laerm;57652;51.436;5.980;2022-11-06T00:24:33;35.20;33.78;37.24;;
69618;Laerm;57652;51.436;5.980;2022-11-06T00:24:43;38.90;35.92;43.37;;
69618;Laerm;57652;51.436;5.980;2022-11-06T00:24:53;36.13;33.83;39.81;;
69618;Laerm;57652;51.436;5.980;2022-11-06T00:25:04;37.33;34.26;41.31;;
69618;Laerm;57652;51.436;5.980;2022-11-06T00:25:14;36.13;33.77;39.57;;
69618;Laerm;57652;51.436;5.980;2022-11-06T00:25:24;36.48;34.87;38.44;;
69618;Laerm;57652;51.436;5.980;2022-11-06T00:25:38;37.12;35.18;40.63;;
69618;Laerm;57652;51.436;5.980;2022-11-06T00:25:49;36.45;34.00;42.95;;
69618;Laerm;57652;51.436;5.980;2022-11-06T00:26:08;36.27;33.98;42.73;;
69618;Laerm;57652;51.436;5.980;2022-11-06T00:26:21;36.02;34.36;38.58;;
69618;Laerm;57652;51.436;5.980;2022-11-06T00:26:32;37.23;34.85;39.77;;
69618;Laerm;57652;51.436;5.980;2022-11-06T00:26:42;36.45;34.57;38.61;;
69618;Laerm;57652;51.436;5.980;2022-11-06T00:26:53;35.51;33.97;40.77;;
69618;Laerm;57652;51.436;5.980;2022-11-06T00:27:03;35.13;33.94;36.48;;
69618;Laerm;57652;51.436;5.980;2022-11-06T00:27:13;34.81;33.42;36.24;;
69618;Laerm;57652;51.436;5.980;2022-11-06T00:27:24;34.67;33.38;35.96;;
69618;Laerm;57652;51.436;5.980;2022-11-06T00:27:37;34.96;33.74;35.90;;
69618;Laerm;57652;51.436;5.980;2022-11-06T00:27:47;35.34;33.77;36.88;;
69618;Laerm;57652;51.436;5.980;2022-11-06T00:27:58;35.77;34.16;37.18;;
69618;Laerm;57652;51.436;5.980;2022-11-06T00:28:08;35.44;33.72;37.21;;
69618;Laerm;57652;51.436;5.980;2022-11-06T00:28:19;36.38;34.79;38.26;;
69618;Laerm;57652;51.436;5.980;2022-11-06T00:28:29;36.59;34.83;39.00;;
69618;Laerm;57652;51.436;5.980;2022-11-06T00:28:40;37.88;34.96;46.53;;
69618;Laerm;57652;51.436;5.980;2022-11-06T00:28:50;38.77;36.50;45.57;;
69618;Laerm;57652;51.436;5.980;2022-11-06T00:29:01;39.77;36.97;42.88;;
69618;Laerm;57652;51.436;5.980;2022-11-06T00:29:12;37.92;35.67;42.96;;
69618;Laerm;57652;51.436;5.980;2022-11-06T00:29:23;36.28;34.12;42.98;;
69618;Laerm;57652;51.436;5.980;2022-11-06T00:29:33;35.61;34.12;37.09;;
69618;Laerm;57652;51.436;5.980;2022-11-06T00:29:44;36.36;35.12;37.82;;
69618;Laerm;57652;51.436;5.980;2022-11-06T00:29:54;35.64;34.02;37.46;;
69618;Laerm;57652;51.436;5.980;2022-11-06T00:30:05;35.11;33.58;36.62;;
69618;Laerm;57652;51.436;5.980;2022-11-06T00:30:16;35.23;33.76;36.77;;
69618;Laerm;57652;51.436;5.980;2022-11-06T00:30:28;34.68;33.42;36.03;;
69618;Laerm;57652;51.436;5.980;2022-11-06T00:30:38;35.57;34.28;37.18;;
69618;Laerm;57652;51.436;5.980;2022-11-06T00:30:49;36.63;34.36;40.10;;
69618;Laerm;57652;51.436;5.980;2022-11-06T00:31:00;39.05;35.90;44.35;;
69618;Laerm;57652;51.436;5.980;2022-11-06T00:31:12;36.35;34.68;41.58;;
69618;Laerm;57652;51.436;5.980;2022-11-06T00:31:23;36.60;34.85;38.25;;
69618;Laerm;57652;51.436;5.980;2022-11-06T00:31:34;36.41;34.84;38.24;;
69618;Laerm;57652;51.436;5.980;2022-11-06T00:31:48;36.48;34.57;38.47;;
69618;Laerm;57652;51.436;5.980;2022-11-06T00:31:58;35.00;33.76;36.19;;
69618;Laerm;57652;51.436;5.980;2022-11-06T00:32:08;39.30;34.59;51.74;;
69618;Laerm;57652;51.436;5.980;2022-11-06T00:32:19;35.52;34.32;36.44;;
69618;Laerm;57652;51.436;5.980;2022-11-06T00:32:29;35.56;34.26;38.22;;
69618;Laerm;57652;51.436;5.980;2022-11-06T00:32:39;35.49;33.84;37.28;;
69618;Laerm;57652;51.436;5.980;2022-11-06T00:32:50;35.17;33.60;37.84;;
69618;Laerm;57652;51.436;5.980;2022-11-06T00:33:00;34.76;33.60;39.08;;
69618;Laerm;57652;51.436;5.980;2022-11-06T00:33:10;36.20;33.90;38.59;;
69618;Laerm;57652;51.436;5.980;2022-11-06T00:33:21;35.22;33.22;37.00;;
69618;Laerm;57652;51.436;5.980;2022-11-06T00:33:31;34.75;33.26;36.33;;
69618;Laerm;57652;51.436;5.980;2022-11-06T00:33:42;34.62;33.29;35.77;;
69618;Laerm;57652;51.436;5.980;2022-11-06T00:33:53;35.08;33.67;36.99;;
69618;Laerm;57652;51.436;5.980;2022-11-06T00:34:04;36.07;34.20;37.81;;
69618;Laerm;57652;51.436;5.980;2022-11-06T00:34:16;34.98;33.65;37.14;;
69618;Laerm;57652;51.436;5.980;2022-11-06T00:34:26;35.13;33.79;36.67;;
69618;Laerm;57652;51.436;5.980;2022-11-06T00:34:37;35.03;33.53;39.18;;
69618;Laerm;57652;51.436;5.980;2022-11-06T00:34:47;34.52;33.22;35.77;;
69618;Laerm;57652;51.436;5.980;2022-11-06T00:34:57;34.65;33.42;36.26;;
69618;Laerm;57652;51.436;5.980;2022-11-06T00:35:07;34.42;32.95;40.29;;
69618;Laerm;57652;51.436;5.980;2022-11-06T00:35:18;35.29;33.18;36.67;;
69618;Laerm;57652;51.436;5.980;2022-11-06T00:35:28;35.75;34.49;37.48;;
69618;Laerm;57652;51.436;5.980;2022-11-06T00:35:38;36.17;34.57;38.16;;
69618;Laerm;57652;51.436;5.980;2022-11-06T00:35:49;36.51;34.63;38.85;;
69618;Laerm;57652;51.436;5.980;2022-11-06T00:36:01;38.09;35.88;40.76;;
69618;Laerm;57652;51.436;5.980;2022-11-06T00:36:12;37.77;34.71;42.61;;
69618;Laerm;57652;51.436;5.980;2022-11-06T00:36:24;35.93;34.41;37.82;;
69618;Laerm;57652;51.436;5.980;2022-11-06T00:36:34;35.32;34.03;37.01;;
69618;Laerm;57652;51.436;5.980;2022-11-06T00:36:44;35.39;34.24;36.77;;
69618;Laerm;57652;51.436;5.980;2022-11-06T00:36:55;36.79;34.75;38.75;;
69618;Laerm;57652;51.436;5.980;2022-11-06T00:37:05;35.98;34.51;37.67;;
69618;Laerm;57652;51.436;5.980;2022-11-06T00:37:15;36.07;34.80;37.24;;
69618;Laerm;57652;51.436;5.980;2022-11-06T00:37:25;35.99;34.39;37.29;;
69618;Laerm;57652;51.436;5.980;2022-11-06T00:37:36;35.86;34.60;37.05;;
69618;Laerm;57652;51.436;5.980;2022-11-06T00:37:46;35.24;33.75;36.49;;
69618;Laerm;57652;51.436;5.980;2022-11-06T00:37:56;35.12;33.65;36.16;;
69618;Laerm;57652;51.436;5.980;2022-11-06T00:38:06;34.95;33.27;36.52;;
69618;Laerm;57652;51.436;5.980;2022-11-06T00:38:17;35.43;33.88;36.69;;
69618;Laerm;57652;51.436;5.980;2022-11-06T00:38:27;35.19;33.85;36.64;;
69618;Laerm;57652;51.436;5.980;2022-11-06T00:38:37;35.16;33.76;36.62;;
69618;Laerm;57652;51.436;5.980;2022-11-06T00:38:51;35.77;34.43;37.02;;
69618;Laerm;57652;51.436;5.980;2022-11-06T00:39:02;35.18;33.49;36.47;;
69618;Laerm;57652;51.436;5.980;2022-11-06T00:39:12;34.91;33.34;36.01;;
69618;Laerm;57652;51.436;5.980;2022-11-06T00:39:23;35.20;33.84;36.52;;
69618;Laerm;57652;51.436;5.980;2022-11-06T00:39:33;35.40;34.19;37.21;;
69618;Laerm;57652;51.436;5.980;2022-11-06T00:39:43;34.92;33.73;35.98;;
69618;Laerm;57652;51.436;5.980;2022-11-06T00:39:53;34.73;33.43;36.08;;
69618;Laerm;57652;51.436;5.980;2022-11-06T00:40:04;34.57;33.22;36.22;;
69618;Laerm;57652;51.436;5.980;2022-11-06T00:40:14;34.76;33.16;38.07;;
69618;Laerm;57652;51.436;5.980;2022-11-06T00:40:25;34.63;33.11;35.92;;
69618;Laerm;57652;51.436;5.980;2022-11-06T00:40:35;35.40;34.16;36.48;;
69618;Laerm;57652;51.436;5.980;2022-11-06T00:40:45;35.47;34.01;37.22;;
69618;Laerm;57652;51.436;5.980;2022-11-06T00:40:56;35.38;34.11;36.59;;
69618;Laerm;57652;51.436;5.980;2022-11-06T00:41:08;34.97;33.78;36.09;;
69618;Laerm;57652;51.436;5.980;2022-11-06T00:41:18;35.05;33.66;36.47;;
69618;Laerm;57652;51.436;5.980;2022-11-06T00:41:29;34.84;33.36;37.28;;
69618;Laerm;57652;51.436;5.980;2022-11-06T00:41:39;34.87;33.65;36.48;;
69618;Laerm;57652;51.436;5.980;2022-11-06T00:41:50;34.82;33.55;36.22;;
69618;Laerm;57652;51.436;5.980;2022-11-06T00:42:00;34.98;33.30;36.58;;
69618;Laerm;57652;51.436;5.980;2022-11-06T00:42:10;36.31;33.90;39.23;;
69618;Laerm;57652;51.436;5.980;2022-11-06T00:42:20;35.16;33.04;40.72;;
69618;Laerm;57652;51.436;5.980;2022-11-06T00:42:31;35.08;33.52;36.17;;
69618;Laerm;57652;51.436;5.980;2022-11-06T00:42:41;36.01;34.12;37.70;;
69618;Laerm;57652;51.436;5.980;2022-11-06T00:42:54;35.71;33.85;37.89;;
69618;Laerm;57652;51.436;5.980;2022-11-06T00:43:05;35.06;33.61;38.98;;
69618;Laerm;57652;51.436;5.980;2022-11-06T00:43:15;35.00;33.29;36.43;;
69618;Laerm;57652;51.436;5.980;2022-11-06T00:43:25;34.36;32.93;35.63;;
69618;Laerm;57652;51.436;5.980;2022-11-06T00:43:35;34.61;33.61;35.77;;
69618;Laerm;57652;51.436;5.980;2022-11-06T00:43:47;34.86;33.62;36.73;;
69618;Laerm;57652;51.436;5.980;2022-11-06T00:43:58;35.99;34.46;38.07;;
69618;Laerm;57652;51.436;5.980;2022-11-06T00:44:09;36.37;35.06;37.59;;
69618;Laerm;57652;51.436;5.980;2022-11-06T00:44:19;35.83;34.60;37.02;;
69618;Laerm;57652;51.436;5.980;2022-11-06T00:44:29;35.71;33.99;38.52;;
69618;Laerm;57652;51.436;5.980;2022-11-06T00:44:40;34.96;33.92;36.74;;
69618;Laerm;57652;51.436;5.980;2022-11-06T00:44:50;36.00;34.00;37.39;;
69618;Laerm;57652;51.436;5.980;2022-11-06T00:45:00;36.00;34.84;37.09;;
69618;Laerm;57652;51.436;5.980;2022-11-06T00:45:10;36.16;34.79;38.94;;
69618;Laerm;57652;51.436;5.980;2022-11-06T00:45:21;35.79;34.28;37.60;;
69618;Laerm;57652;51.436;5.980;2022-11-06T00:45:31;36.56;34.43;40.55;;
69618;Laerm;57652;51.436;5.980;2022-11-06T00:45:41;38.41;34.34;46.67;;
69618;Laerm;57652;51.436;5.980;2022-11-06T00:45:52;35.15;33.93;38.00;;
69618;Laerm;57652;51.436;5.980;2022-11-06T00:46:12;36.22;34.70;37.85;;
69618;Laerm;57652;51.436;5.980;2022-11-06T00:46:23;35.99;34.68;37.80;;
69618;Laerm;57652;51.436;5.980;2022-11-06T00:46:35;35.52;33.80;37.17;;
69618;Laerm;57652;51.436;5.980;2022-11-06T00:46:45;35.12;33.76;36.18;;
69618;Laerm;57652;51.436;5.980;2022-11-06T00:46:56;34.86;33.73;36.10;;
69618;Laerm;57652;51.436;5.980;2022-11-06T00:47:06;34.83;33.85;35.85;;
69618;Laerm;57652;51.436;5.980;2022-11-06T00:47:16;34.93;33.60;36.04;;
69618;Laerm;57652;51.436;5.980;2022-11-06T00:47:26;35.00;33.94;36.18;;
69618;Laerm;57652;51.436;5.980;2022-11-06T00:47:37;35.32;34.12;37.16;;
69618;Laerm;57652;51.436;5.980;2022-11-06T00:47:47;34.99;33.72;36.71;;
69618;Laerm;57652;51.436;5.980;2022-11-06T00:47:57;34.59;33.20;35.96;;
69618;Laerm;57652;51.436;5.980;2022-11-06T00:48:08;34.54;33.19;35.66;;
69618;Laerm;57652;51.436;5.980;2022-11-06T00:48:18;35.67;34.33;36.92;;
69618;Laerm;57652;51.436;5.980;2022-11-06T00:48:28;35.13;33.99;36.46;;
69618;Laerm;57652;51.436;5.980;2022-11-06T00:48:39;35.26;34.26;36.71;;
69618;Laerm;57652;51.436;5.980;2022-11-06T00:48:50;36.01;34.54;37.47;;
69618;Laerm;57652;51.436;5.980;2022-11-06T00:49:01;35.34;33.63;37.22;;
69618;Laerm;57652;51.436;5.980;2022-11-06T00:49:11;34.91;33.61;38.09;;
69618;Laerm;57652;51.436;5.980;2022-11-06T00:49:21;34.89;33.71;36.18;;
69618;Laerm;57652;51.436;5.980;2022-11-06T00:49:32;35.38;33.37;39.05;;
69618;Laerm;57652;51.436;5.980;2022-11-06T00:49:42;35.58;33.98;37.47;;
69618;Laerm;57652;51.436;5.980;2022-11-06T00:49:52;36.57;35.22;41.39;;
69618;Laerm;57652;51.436;5.980;2022-11-06T00:50:03;36.92;35.26;39.01;;
69618;Laerm;57652;51.436;5.980;2022-11-06T00:50:13;35.95;34.50;37.61;;
69618;Laerm;57652;51.436;5.980;2022-11-06T00:50:23;35.65;34.33;36.70;;
69618;Laerm;57652;51.436;5.980;2022-11-06T00:50:35;35.86;34.15;37.12;;
69618;Laerm;57652;51.436;5.980;2022-11-06T00:50:45;36.08;34.94;37.11;;
69618;Laerm;57652;51.436;5.980;2022-11-06T00:51:00;36.73;35.56;38.45;;
69618;Laerm;57652;51.436;5.980;2022-11-06T00:51:12;38.70;36.19;42.85;;
69618;Laerm;57652;51.436;5.980;2022-11-06T00:51:24;36.36;34.37;38.25;;
69618;Laerm;57652;51.436;5.980;2022-11-06T00:51:35;36.40;34.52;44.40;;
69618;Laerm;57652;51.436;5.980;2022-11-06T00:51:48;36.10;33.93;39.62;;
69618;Laerm;57652;51.436;5.980;2022-11-06T00:51:58;35.07;33.50;36.42;;
69618;Laerm;57652;51.436;5.980;2022-11-06T00:52:08;34.26;32.81;35.52;;
69618;Laerm;57652;51.436;5.980;2022-11-06T00:52:19;34.47;33.18;35.92;;
69618;Laerm;57652;51.436;5.980;2022-11-06T00:52:29;35.62;34.51;37.03;;
69618;Laerm;57652;51.436;5.980;2022-11-06T00:52:39;35.13;33.80;36.49;;
69618;Laerm;57652;51.436;5.980;2022-11-06T00:52:50;35.39;34.10;36.59;;
69618;Laerm;57652;51.436;5.980;2022-11-06T00:53:00;34.94;33.66;36.08;;
69618;Laerm;57652;51.436;5.980;2022-11-06T00:53:10;34.72;33.35;35.89;;
69618;Laerm;57652;51.436;5.980;2022-11-06T00:53:20;34.85;33.33;36.59;;
69618;Laerm;57652;51.436;5.980;2022-11-06T00:53:30;34.87;33.52;37.23;;
69618;Laerm;57652;51.436;5.980;2022-11-06T00:53:41;34.93;33.76;36.32;;
69618;Laerm;57652;51.436;5.980;2022-11-06T00:53:52;34.59;33.49;35.91;;
69618;Laerm;57652;51.436;5.980;2022-11-06T00:54:03;36.85;34.19;40.63;;
69618;Laerm;57652;51.436;5.980;2022-11-06T00:54:14;37.78;34.57;40.45;;
69618;Laerm;57652;51.436;5.980;2022-11-06T00:54:24;34.97;33.53;36.29;;
69618;Laerm;57652;51.436;5.980;2022-11-06T00:54:34;34.82;33.66;36.03;;
69618;Laerm;57652;51.436;5.980;2022-11-06T00:54:45;34.83;33.16;36.05;;
69618;Laerm;57652;51.436;5.980;2022-11-06T00:54:55;34.69;33.66;35.91;;
69618;Laerm;57652;51.436;5.980;2022-11-06T00:55:05;35.02;33.72;36.29;;
69618;Laerm;57652;51.436;5.980;2022-11-06T00:55:16;34.55;32.87;39.12;;
69618;Laerm;57652;51.436;5.980;2022-11-06T00:55:26;34.21;33.13;35.42;;
69618;Laerm;57652;51.436;5.980;2022-11-06T00:55:36;34.02;32.80;35.70;;
69618;Laerm;57652;51.436;5.980;2022-11-06T00:55:46;34.31;32.79;36.25;;
69618;Laerm;57652;51.436;5.980;2022-11-06T00:56:03;34.12;33.08;35.34;;
69618;Laerm;57652;51.436;5.980;2022-11-06T00:56:15;34.23;33.00;35.68;;
69618;Laerm;57652;51.436;5.980;2022-11-06T00:56:26;33.97;32.82;35.16;;
69618;Laerm;57652;51.436;5.980;2022-11-06T00:56:36;35.41;33.54;39.83;;
69618;Laerm;57652;51.436;5.980;2022-11-06T00:56:47;36.76;34.22;44.35;;
69618;Laerm;57652;51.436;5.980;2022-11-06T00:56:57;34.99;33.56;36.96;;
69618;Laerm;57652;51.436;5.980;2022-11-06T00:57:07;35.62;33.82;39.64;;
69618;Laerm;57652;51.436;5.980;2022-11-06T00:57:17;35.86;34.45;41.64;;
69618;Laerm;57652;51.436;5.980;2022-11-06T00:57:28;34.42;33.03;37.34;;
69618;Laerm;57652;51.436;5.980;2022-11-06T00:57:38;34.42;33.20;35.82;;
69618;Laerm;57652;51.436;5.980;2022-11-06T00:57:48;34.29;33.00;35.33;;
69618;Laerm;57652;51.436;5.980;2022-11-06T00:57:58;34.32;32.94;36.86;;
69618;Laerm;57652;51.436;5.980;2022-11-06T00:58:09;34.08;33.09;35.67;;
69618;Laerm;57652;51.436;5.980;2022-11-06T00:58:19;34.20;32.89;35.42;;
69618;Laerm;57652;51.436;5.980;2022-11-06T00:58:29;33.66;32.31;34.70;;
69618;Laerm;57652;51.436;5.980;2022-11-06T00:58:40;33.80;32.73;35.03;;
69618;Laerm;57652;51.436;5.980;2022-11-06T00:58:51;33.94;32.72;35.39;;
69618;Laerm;57652;51.436;5.980;2022-11-06T00:59:02;34.60;33.53;36.15;;
69618;Laerm;57652;51.436;5.980;2022-11-06T00:59:13;35.08;33.03;36.61;;
69618;Laerm;57652;51.436;5.980;2022-11-06T00:59:23;38.83;35.49;42.28;;
69618;Laerm;57652;51.436;5.980;2022-11-06T00:59:33;41.57;38.44;44.59;;
69618;Laerm;57652;51.436;5.980;2022-11-06T00:59:44;40.43;38.08;43.95;;
69618;Laerm;57652;51.436;5.980;2022-11-06T00:59:54;37.53;36.02;41.36;;
69618;Laerm;57652;51.436;5.980;2022-11-06T01:00:04;37.93;36.45;42.84;;
69618;Laerm;57652;51.436;5.980;2022-11-06T01:00:15;43.04;36.66;52.51;;
69618;Laerm;57652;51.436;5.980;2022-11-06T01:00:27;40.13;35.98;48.68;;
69618;Laerm;57652;51.436;5.980;2022-11-06T01:00:37;36.82;34.83;42.77;;
69618;Laerm;57652;51.436;5.980;2022-11-06T01:00:47;37.39;35.09;41.64;;
69618;Laerm;57652;51.436;5.980;2022-11-06T01:01:07;37.42;34.40;42.97;;
69618;Laerm;57652;51.436;5.980;2022-11-06T01:01:19;36.59;34.26;42.85;;
69618;Laerm;57652;51.436;5.980;2022-11-06T01:01:34;37.60;34.47;40.77;;
69618;Laerm;57652;51.436;5.980;2022-11-06T01:01:45;36.72;34.85;38.45;;